Overview Statistics Trail Chart Weather Telemetry Raw packets
 

This is the latest recevied weather packets stored in our database for station/object SV9FBP-13. If no packets are shown the sender has not sent any weather packets the latest 10 day(s).

<< 1 2 3 4 5 6 7 >>
Time Temp. Humidity Pressure Rain* Wind** Luminosity Snow
1788595122 30.56° C 42% 1010.8 hPa 0 mm - - -
1788594219 30.56° C 43% 1010.8 hPa 0 mm - - -
1788593318 30.56° C 42% 1010.5 hPa 0 mm - - -
1788592414 29.44° C 45% 1010.6 hPa 0 mm - - -
1788591513 30° C 45% 1010.5 hPa 0 mm - - -
1788590610 29.44° C 47% 1010.2 hPa 0 mm - - -
1788589707 29.44° C 48% 1010.2 hPa 0 mm - - -
1788588805 28.89° C 50% 1010.3 hPa 0 mm - - -
1788587904 28.33° C 51% 1010.1 hPa 0 mm - - -
1788587001 28.33° C 51% 1010 hPa 0 mm - - -
1788586100 28.33° C 52% 1010 hPa 0 mm - - -
1788585197 27.78° C 52% 1009.9 hPa 0 mm - - -
1788584295 27.78° C 54% 1009.9 hPa 0 mm - - -
1788583392 27.22° C 57% 1009.7 hPa 0 mm - - -
1788582491 26.67° C 58% 1009.8 hPa 0 mm - - -
1788581589 26.11° C 61% 1009.6 hPa 0 mm - - -
1788580687 26.11° C 60% 1009.6 hPa 0 mm - - -
1788579784 25.56° C 61% 1009.4 hPa 0 mm - - -
1788578882 26.11° C 60% 1009.2 hPa 0 mm - - -
1788577980 26.11° C 60% 1009.2 hPa 0 mm - - -
1788577081 26.11° C 56% 1009 hPa 0 mm - - -
1788576175 26.11° C 56% 1009.1 hPa 0 mm - - -
1788575274 26.11° C 55% 1008.9 hPa 0 mm - - -
1788574371 26.11° C 55% 1009.1 hPa 0 mm - - -
1788573470 26.67° C 54% 1009.1 hPa 0 mm - - -

* Rain latest hour (hover to see other rain measurements)
** Current wind speed in m/s (hover to see current wind gust speed)